createdAt,value
2018-02-22T00:01:18.589Z,58.21
2018-02-22T00:03:46.141Z,57.90
2018-02-22T00:06:13.681Z,58.17
2018-02-22T00:08:41.362Z,58.23
2018-02-22T00:11:09.120Z,57.97
2018-02-22T00:13:36.630Z,58.43
2018-02-22T00:16:04.162Z,58.84
2018-02-22T00:18:31.710Z,58.11
2018-02-22T00:20:59.257Z,58.01
2018-02-22T00:23:26.766Z,58.05
2018-02-22T00:25:54.300Z,57.82
2018-02-22T00:28:21.845Z,58.18
2018-02-22T00:30:49.367Z,58.84
2018-02-22T00:33:16.935Z,57.89
2018-02-22T00:35:44.453Z,58.70
2018-02-22T00:38:11.973Z,58.53
2018-02-22T00:40:39.534Z,58.21
2018-02-22T00:43:07.061Z,58.84
2018-02-22T00:45:34.978Z,58.33
2018-02-22T00:48:02.502Z,58.77
2018-02-22T00:50:30.058Z,58.65
2018-02-22T00:52:57.617Z,58.96
2018-02-22T00:55:25.142Z,58.20
2018-02-22T00:57:52.965Z,58.29
2018-02-22T01:00:20.489Z,58.92
2018-02-22T01:02:48.026Z,58.85
2018-02-22T01:05:15.589Z,58.15
2018-02-22T01:07:43.114Z,58.81
2018-02-22T01:10:10.666Z,58.23
2018-02-22T01:12:38.185Z,57.99
2018-02-22T01:15:05.911Z,58.02
2018-02-22T01:17:33.483Z,57.77
2018-02-22T01:20:01.020Z,57.78
2018-02-22T01:22:28.757Z,57.90
2018-02-22T01:24:56.269Z,57.89
2018-02-22T01:27:23.794Z,57.80
2018-02-22T01:29:51.361Z,57.42
2018-02-22T01:32:18.885Z,57.08
2018-02-22T01:34:46.560Z,57.48
2018-02-22T01:37:14.106Z,57.43
2018-02-22T01:39:41.648Z,56.95
2018-02-22T01:42:09.197Z,57.66
2018-02-22T01:44:36.729Z,57.74
2018-02-22T01:47:04.281Z,57.46
2018-02-22T01:49:31.806Z,57.29
2018-02-22T01:51:59.337Z,57.70
2018-02-22T01:54:26.893Z,57.59
2018-02-22T01:56:54.420Z,57.22
2018-02-22T01:59:21.979Z,57.43
2018-02-22T02:01:49.514Z,57.45
2018-02-22T02:04:17.042Z,57.30
2018-02-22T02:06:44.597Z,57.06
2018-02-22T02:09:12.118Z,57.04
2018-02-22T02:11:39.691Z,57.05
2018-02-22T02:14:07.214Z,56.98
2018-02-22T02:16:34.740Z,57.48
2018-02-22T02:19:02.313Z,57.53
2018-02-22T02:21:29.841Z,57.66
2018-02-22T02:23:57.642Z,58.03
2018-02-22T02:26:25.157Z,57.98
2018-02-22T02:28:52.673Z,57.87
2018-02-22T02:31:20.225Z,58.39
2018-02-22T02:33:47.754Z,58.88
2018-02-22T02:36:15.990Z,58.42
2018-02-22T02:38:43.522Z,58.82
2018-02-22T02:41:11.046Z,58.70
2018-02-22T02:43:38.603Z,58.82
2018-02-22T02:46:06.136Z,59.16
2018-02-22T02:48:33.711Z,58.91
2018-02-22T02:51:01.262Z,59.35
2018-02-22T02:53:29.701Z,59.11
2018-02-22T02:55:57.255Z,58.84
2018-02-22T02:58:24.790Z,58.91
2018-02-22T03:00:52.663Z,58.69
2018-02-22T03:03:20.187Z,59.41
2018-02-22T03:05:47.743Z,59.37
2018-02-22T03:08:15.302Z,59.31
2018-02-22T03:10:42.818Z,58.82
2018-02-22T03:13:10.398Z,58.78
2018-02-22T03:15:37.913Z,58.53
2018-02-22T03:18:05.426Z,58.94
2018-02-22T03:20:32.982Z,59.06
2018-02-22T03:23:00.502Z,58.78
2018-02-22T03:25:28.257Z,59.06
2018-02-22T03:27:55.773Z,58.56
2018-02-22T03:30:23.311Z,59.02
2018-02-22T03:32:50.862Z,59.65
2018-02-22T03:35:18.415Z,59.40
2018-02-22T03:37:46.258Z,59.42
2018-02-22T03:40:14.249Z,59.00
2018-02-22T03:42:41.763Z,59.11
2018-02-22T03:45:09.319Z,60.00
2018-02-22T03:47:36.853Z,60.26
2018-02-22T03:50:04.420Z,60.86
2018-02-22T03:52:31.946Z,60.35
2018-02-22T03:54:59.483Z,60.06
2018-02-22T03:57:27.043Z,59.89
2018-02-22T03:59:54.566Z,59.38
2018-02-22T04:02:22.117Z,59.69
2018-02-22T04:04:49.633Z,59.54
2018-02-22T04:07:17.154Z,59.60
2018-02-22T04:09:44.697Z,59.17
2018-02-22T04:12:12.214Z,59.52
2018-02-22T04:14:39.873Z,59.20
2018-02-22T04:17:07.409Z,59.22
2018-02-22T04:19:34.934Z,58.90
2018-02-22T04:22:02.483Z,58.82
2018-02-22T04:24:30.332Z,58.70
2018-02-22T04:26:57.897Z,59.01
2018-02-22T04:29:25.441Z,58.86
2018-02-22T04:31:52.963Z,58.36
2018-02-22T04:34:20.510Z,58.53
2018-02-22T04:36:48.033Z,58.21
2018-02-22T04:39:15.592Z,58.05
2018-02-22T04:41:43.113Z,58.17
2018-02-22T04:44:10.635Z,58.50
2018-02-22T04:46:38.188Z,58.33
2018-02-22T04:49:05.714Z,58.54
2018-02-22T04:51:33.266Z,58.37
2018-02-22T04:54:00.797Z,58.30
2018-02-22T04:56:28.322Z,58.47
2018-02-22T04:58:56.766Z,58.23
2018-02-22T05:01:24.293Z,57.93
2018-02-22T05:03:52.391Z,58.63
2018-02-22T05:06:19.908Z,58.29
2018-02-22T05:08:47.469Z,57.87
2018-02-22T05:11:15.256Z,57.76
2018-02-22T05:13:42.778Z,58.89
2018-02-22T05:16:10.473Z,57.93
2018-02-22T05:18:38.000Z,57.85
2018-02-22T05:21:05.523Z,58.05
2018-02-22T05:23:33.082Z,57.40
2018-02-22T05:26:01.012Z,58.32
2018-02-22T05:28:29.623Z,57.73
2018-02-22T05:30:57.161Z,57.86
2018-02-22T05:33:24.686Z,57.28
2018-02-22T05:35:52.235Z,57.66
2018-02-22T05:38:19.749Z,57.84
2018-02-22T05:40:47.500Z,57.23
2018-02-22T05:43:15.041Z,57.41
2018-02-22T05:45:42.744Z,56.84
2018-02-22T05:48:10.296Z,56.63
2018-02-22T05:50:37.818Z,57.04
2018-02-22T05:53:05.601Z,57.13
2018-02-22T05:55:33.118Z,56.59
2018-02-22T05:58:00.641Z,56.78
2018-02-22T06:00:28.205Z,57.18
2018-02-22T06:02:55.745Z,56.94
2018-02-22T06:05:23.406Z,56.78
2018-02-22T06:07:50.932Z,56.26
2018-02-22T06:10:18.455Z,56.36
2018-02-22T06:12:46.010Z,56.29
2018-02-22T06:15:13.600Z,57.11
2018-02-22T06:17:41.213Z,56.74
2018-02-22T06:20:08.738Z,57.26
2018-02-22T06:22:36.259Z,56.61
2018-02-22T06:25:03.814Z,57.05
2018-02-22T06:27:31.348Z,57.32
2018-02-22T06:29:59.202Z,56.88
2018-02-22T06:32:26.718Z,56.41
2018-02-22T06:34:54.253Z,56.40
2018-02-22T06:37:21.838Z,56.46
2018-02-22T06:39:49.350Z,56.55
2018-02-22T06:42:17.200Z,56.62
2018-02-22T06:44:44.728Z,55.88
2018-02-22T06:47:12.252Z,55.93
2018-02-22T06:49:39.802Z,55.20
2018-02-22T06:52:07.322Z,55.40
2018-02-22T06:54:35.203Z,55.53
2018-02-22T06:57:02.727Z,55.69
2018-02-22T06:59:30.248Z,55.43
2018-02-22T07:01:57.814Z,55.30
2018-02-22T07:04:25.333Z,55.89
2018-02-22T07:06:53.029Z,55.03
2018-02-22T07:09:20.554Z,55.44
2018-02-22T07:11:48.078Z,55.94
2018-02-22T07:14:15.643Z,55.52
2018-02-22T07:16:43.167Z,55.44
2018-02-22T07:19:10.818Z,56.40
2018-02-22T07:21:38.382Z,55.64
2018-02-22T07:24:05.901Z,55.87
2018-02-22T07:26:33.450Z,55.63
2018-02-22T07:29:00.971Z,56.47
2018-02-22T07:31:28.519Z,55.78
2018-02-22T07:33:56.041Z,55.40
2018-02-22T07:36:23.567Z,55.48
2018-02-22T07:38:51.120Z,55.22
2018-02-22T07:41:18.639Z,53.62
2018-02-22T07:43:46.386Z,54.14
2018-02-22T07:46:13.906Z,54.22
2018-02-22T07:48:41.434Z,53.36
2018-02-22T07:51:09.870Z,53.29
2018-02-22T07:53:37.426Z,53.31
2018-02-22T07:56:05.194Z,52.75
2018-02-22T07:58:32.732Z,52.70
2018-02-22T08:01:00.255Z,52.93
2018-02-22T08:03:27.818Z,52.55
2018-02-22T08:05:55.343Z,52.69
2018-02-22T08:08:23.004Z,52.73
2018-02-22T08:10:50.528Z,52.24
2018-02-22T08:13:18.041Z,52.49
2018-02-22T08:15:45.607Z,52.73
2018-02-22T08:18:13.126Z,52.48
2018-02-22T08:20:40.682Z,52.23
2018-02-22T08:23:08.253Z,52.67
2018-02-22T08:25:35.749Z,51.85
2018-02-22T08:28:03.299Z,51.63
2018-02-22T08:30:30.826Z,51.37
2018-02-22T08:32:58.494Z,50.86
2018-02-22T08:35:26.014Z,49.08
2018-02-22T08:37:57.301Z,49.71
2018-02-22T08:40:24.846Z,50.12
2018-02-22T08:42:52.378Z,49.56
2018-02-22T08:45:20.187Z,49.51
2018-02-22T08:47:47.707Z,49.13
2018-02-22T08:50:15.230Z,49.40
2018-02-22T08:52:42.778Z,48.90
2018-02-22T08:55:10.300Z,48.99
2018-02-22T08:57:37.867Z,48.75
2018-02-22T09:00:05.390Z,48.51
2018-02-22T09:02:32.911Z,48.96
2018-02-22T09:05:00.486Z,48.57
2018-02-22T09:07:28.023Z,48.39
2018-02-22T09:09:55.579Z,48.37
2018-02-22T09:12:23.115Z,47.85
2018-02-22T09:14:50.638Z,48.76
2018-02-22T09:17:18.184Z,48.76
2018-02-22T09:19:45.719Z,49.51
2018-02-22T09:22:13.271Z,49.56
2018-02-22T09:24:40.794Z,48.83
2018-02-22T09:27:08.319Z,47.85
2018-02-22T09:29:35.865Z,47.89
2018-02-22T09:32:03.386Z,47.40
2018-02-22T09:34:31.262Z,46.76
2018-02-22T09:36:58.781Z,46.79
2018-02-22T09:39:26.305Z,45.46
2018-02-22T09:41:53.850Z,46.52
2018-02-22T09:44:21.370Z,44.49
2018-02-22T09:46:48.936Z,44.90
2018-02-22T09:49:16.463Z,43.59
2018-02-22T09:51:43.981Z,43.38
2018-02-22T09:54:11.518Z,43.58
2018-02-22T09:56:39.043Z,42.90
2018-02-22T09:59:06.826Z,43.30
2018-02-22T10:01:34.435Z,43.25
2018-02-22T10:04:01.955Z,43.84
2018-02-22T10:06:29.536Z,43.12
2018-02-22T10:08:57.049Z,42.32
2018-02-22T10:11:24.756Z,43.23
2018-02-22T10:13:52.297Z,42.76
2018-02-22T10:16:20.102Z,42.74
2018-02-22T10:18:47.692Z,42.95
2018-02-22T10:21:15.202Z,42.53
2018-02-22T10:23:42.866Z,42.32
2018-02-22T10:26:10.393Z,41.37
2018-02-22T10:28:37.953Z,41.75
2018-02-22T10:31:05.542Z,41.74
2018-02-22T10:33:33.062Z,42.22
2018-02-22T10:36:00.630Z,42.98
2018-02-22T10:38:28.151Z,42.10
2018-02-22T10:40:55.673Z,43.09
2018-02-22T10:43:23.217Z,42.56
2018-02-22T10:45:51.014Z,42.90
2018-02-22T10:48:18.982Z,42.30
2018-02-22T10:50:46.587Z,42.84
2018-02-22T10:53:14.309Z,42.40
2018-02-22T10:55:41.871Z,41.88
2018-02-22T10:58:09.387Z,41.71
2018-02-22T11:00:42.505Z,40.20
2018-02-22T11:03:10.049Z,40.17
2018-02-22T11:05:37.598Z,39.93
2018-02-22T11:08:05.612Z,39.15
2018-02-22T11:10:33.369Z,38.30
2018-02-22T11:13:00.918Z,37.99
2018-02-22T11:15:28.459Z,37.94
2018-02-22T11:17:55.982Z,37.27
2018-02-22T11:20:23.534Z,38.53
2018-02-22T11:22:51.054Z,38.47
2018-02-22T11:25:18.821Z,38.20
2018-02-22T11:27:46.484Z,38.14
2018-02-22T11:30:14.010Z,38.06
2018-02-22T11:32:41.662Z,38.00
2018-02-22T11:35:09.369Z,36.30
2018-02-22T11:37:37.541Z,32.79
2018-02-22T11:40:05.062Z,33.54
2018-02-22T11:42:32.710Z,33.73
2018-02-22T11:45:00.261Z,31.37
2018-02-22T11:47:27.778Z,32.73
2018-02-22T11:49:55.734Z,33.09
2018-02-22T11:52:23.305Z,32.22
2018-02-22T11:54:50.826Z,31.74
2018-02-22T11:57:18.375Z,30.44
2018-02-22T11:59:45.895Z,26.47
2018-02-22T12:02:13.469Z,25.92
2018-02-22T12:04:40.990Z,26.04
2018-02-22T12:07:08.510Z,27.20
2018-02-22T12:09:36.063Z,28.14
2018-02-22T12:12:03.574Z,29.22
2018-02-22T12:14:31.128Z,30.04
2018-02-22T12:16:58.652Z,30.24
2018-02-22T12:19:26.252Z,30.67
2018-02-22T12:21:53.895Z,32.72
2018-02-22T12:24:22.486Z,32.87
2018-02-22T12:26:50.030Z,33.92
2018-02-22T12:29:17.627Z,34.89
2018-02-22T12:31:45.145Z,34.66
2018-02-22T12:34:13.558Z,34.61
2018-02-22T12:36:41.073Z,33.36
2018-02-22T12:39:08.784Z,32.67
2018-02-22T12:41:36.429Z,32.34
2018-02-22T12:44:04.201Z,33.39
2018-02-22T12:46:31.754Z,34.66
2018-02-22T12:48:59.400Z,33.98
2018-02-22T12:51:27.173Z,34.51
2018-02-22T12:53:54.716Z,35.03
2018-02-22T12:56:22.296Z,34.58
2018-02-22T12:58:49.966Z,34.44
2018-02-22T13:01:17.549Z,35.08
2018-02-22T13:03:45.393Z,34.64
2018-02-22T13:06:13.156Z,34.59
2018-02-22T13:08:40.733Z,34.58
2018-02-22T13:11:08.377Z,35.07
2018-02-22T13:13:35.909Z,35.00
2018-02-22T13:16:03.445Z,35.12
2018-02-22T13:18:30.979Z,35.62
2018-02-22T13:20:58.582Z,35.53
2018-02-22T13:23:26.146Z,36.67
2018-02-22T13:25:53.661Z,36.57
2018-02-22T13:28:21.254Z,36.40
2018-02-22T13:30:48.926Z,35.20
2018-02-22T13:33:28.400Z,35.42
2018-02-22T13:35:56.277Z,36.08
2018-02-22T13:38:35.671Z,36.31
2018-02-22T13:41:03.268Z,36.46
2018-02-22T13:43:30.805Z,37.98
2018-02-22T13:45:58.342Z,37.59
2018-02-22T13:51:28.206Z,36.63
2018-02-22T13:53:55.758Z,37.45
2018-02-22T13:56:35.306Z,38.14
2018-02-22T13:59:02.905Z,37.19
2018-02-22T14:04:38.376Z,37.30
2018-02-22T14:07:06.195Z,37.52
2018-02-22T14:09:34.063Z,37.91
2018-02-22T14:12:01.934Z,38.29
2018-02-22T14:14:29.603Z,37.38
2018-02-22T14:16:57.456Z,38.14
2018-02-22T14:19:25.181Z,38.92
2018-02-22T14:21:52.883Z,38.21
2018-02-22T14:24:20.633Z,38.16
2018-02-22T14:26:48.241Z,37.63
2018-02-22T14:29:15.755Z,38.10
2018-02-22T14:31:43.353Z,38.10
2018-02-22T14:34:11.909Z,37.59
2018-02-22T14:36:39.661Z,38.34
2018-02-22T14:39:07.210Z,37.31
2018-02-22T14:41:34.742Z,37.35
2018-02-22T14:44:02.397Z,38.43
2018-02-22T14:46:30.106Z,38.36
2018-02-22T14:48:58.073Z,39.24
2018-02-22T14:51:25.848Z,38.62
2018-02-22T14:53:53.816Z,38.90
2018-02-22T14:56:21.488Z,38.82
2018-02-22T14:58:49.136Z,38.52
2018-02-22T15:01:17.006Z,39.71
2018-02-22T15:03:44.755Z,39.49
2018-02-22T15:06:12.831Z,39.32
2018-02-22T15:08:40.714Z,39.34
2018-02-22T15:11:08.585Z,39.06
2018-02-22T15:13:36.544Z,38.95
2018-02-22T15:16:04.412Z,39.70
2018-02-22T15:18:32.280Z,39.07
2018-02-22T15:21:00.042Z,38.53
2018-02-22T15:23:27.911Z,38.69
2018-02-22T15:25:55.876Z,39.81
2018-02-22T15:28:23.885Z,39.11
2018-02-22T15:30:52.327Z,39.10
2018-02-22T15:33:20.092Z,38.93
2018-02-22T15:35:47.958Z,39.48
2018-02-22T15:38:15.928Z,39.41
2018-02-22T15:40:43.894Z,39.91
2018-02-22T15:43:12.274Z,39.04
2018-02-22T15:45:40.195Z,39.00
2018-02-22T15:48:08.008Z,39.79
2018-02-22T15:50:36.046Z,40.27
2018-02-22T15:53:03.901Z,39.95
2018-02-22T15:55:32.017Z,39.78
2018-02-22T15:57:59.881Z,39.76
2018-02-22T16:00:27.748Z,40.52
2018-02-22T16:02:55.406Z,39.70
2018-02-22T16:05:23.057Z,39.70
2018-02-22T16:07:50.738Z,40.47
2018-02-22T16:10:18.599Z,40.87
2018-02-22T16:12:46.978Z,41.23
2018-02-22T16:15:15.051Z,40.79
2018-02-22T16:17:42.816Z,40.83
2018-02-22T16:20:10.680Z,41.54
2018-02-22T16:22:38.547Z,41.15
2018-02-22T16:25:07.335Z,40.96
2018-02-22T16:27:35.321Z,40.93
2018-02-22T16:30:03.171Z,40.43
2018-02-22T16:32:31.948Z,41.00
2018-02-22T16:34:59.879Z,41.20
2018-02-22T16:37:27.570Z,40.55
2018-02-22T16:39:55.700Z,40.45
2018-02-22T16:42:24.243Z,40.68
2018-02-22T16:44:52.212Z,41.14
2018-02-22T16:47:25.495Z,41.38
2018-02-22T16:49:53.476Z,41.46
2018-02-22T16:52:21.445Z,40.99
2018-02-22T16:54:49.310Z,40.77
2018-02-22T16:57:17.386Z,41.41
2018-02-22T16:59:45.151Z,41.75
2018-02-22T17:02:13.319Z,41.50
2018-02-22T17:04:41.391Z,41.99
2018-02-22T17:07:09.777Z,41.53
2018-02-22T17:09:37.912Z,41.33
2018-02-22T17:12:06.094Z,41.31
2018-02-22T17:14:34.393Z,42.07
2018-02-22T17:17:03.082Z,41.62
2018-02-22T17:19:31.048Z,42.03
2018-02-22T17:21:59.016Z,42.26
2018-02-22T17:24:26.883Z,42.60
2018-02-22T17:27:00.403Z,42.37
2018-02-22T17:29:33.778Z,42.13
2018-02-22T17:32:07.173Z,42.65
2018-02-22T17:34:35.042Z,42.82
2018-02-22T17:37:12.944Z,43.05
2018-02-22T17:42:48.585Z,43.56
2018-02-22T17:45:16.583Z,43.54
2018-02-22T17:47:44.568Z,43.36
2018-02-22T17:50:12.522Z,43.55
2018-02-22T17:52:40.488Z,43.25
2018-02-22T17:55:09.277Z,43.48
2018-02-22T17:57:37.247Z,43.25
2018-02-22T18:00:05.110Z,43.16
2018-02-22T18:02:34.195Z,43.09
2018-02-22T18:05:02.035Z,43.25
2018-02-22T18:07:30.058Z,43.30
2018-02-22T18:09:58.013Z,42.90
2018-02-22T18:12:26.288Z,42.82
2018-02-22T18:14:54.256Z,42.75
2018-02-22T18:17:22.153Z,43.12
2018-02-22T18:19:50.120Z,43.36
2018-02-22T18:22:18.168Z,43.22
2018-02-22T18:24:46.544Z,43.32
2018-02-22T18:27:14.738Z,43.79
2018-02-22T18:29:44.056Z,43.53
2018-02-22T18:32:13.114Z,43.61
2018-02-22T18:34:40.934Z,43.29
2018-02-22T18:37:14.646Z,43.34
2018-02-22T18:39:42.690Z,43.00
2018-02-22T18:42:16.268Z,43.39
2018-02-22T18:44:49.771Z,43.69
2018-02-22T18:47:18.641Z,43.21
2018-02-22T18:49:46.607Z,43.63
2018-02-22T18:52:14.474Z,43.68
2018-02-22T18:54:43.164Z,43.74
2018-02-22T18:57:11.904Z,43.36
2018-02-22T18:59:40.019Z,43.48
2018-02-22T19:02:07.890Z,43.17
2018-02-22T19:04:35.856Z,43.60
2018-02-22T19:07:03.847Z,44.02
2018-02-22T19:09:31.794Z,43.61
2018-02-22T19:12:00.817Z,43.81
2018-02-22T19:14:29.675Z,43.64
2018-02-22T19:16:57.645Z,44.13
2018-02-22T19:19:26.972Z,43.76
2018-02-22T19:21:55.296Z,43.27
2018-02-22T19:24:23.703Z,43.65
2018-02-22T19:26:51.570Z,44.01
2018-02-22T19:29:20.560Z,43.23
2018-02-22T19:31:49.133Z,43.69
2018-02-22T19:34:17.420Z,43.57
2018-02-22T19:36:45.568Z,44.01
2018-02-22T19:39:13.461Z,43.34
2018-02-22T19:41:41.942Z,43.22
2018-02-22T19:44:11.150Z,43.05
2018-02-22T19:46:39.086Z,43.06
2018-02-22T19:49:07.054Z,42.63
2018-02-22T19:51:35.764Z,42.81
2018-02-22T19:54:03.733Z,42.96
2018-02-22T19:56:31.704Z,43.36
2018-02-22T19:59:00.692Z,43.33
2018-02-22T20:01:29.091Z,42.81
2018-02-22T20:03:57.348Z,42.86
2018-02-22T20:06:25.247Z,42.83
2018-02-22T20:08:53.490Z,42.41
2018-02-22T20:11:21.357Z,42.84
2018-02-22T20:13:49.845Z,42.92
2018-02-22T20:16:17.826Z,42.81
2018-02-22T20:18:46.086Z,42.64
2018-02-22T20:21:14.462Z,42.96
2018-02-22T20:23:42.305Z,43.02
2018-02-22T20:26:10.595Z,42.07
2018-02-22T20:28:38.440Z,42.33
2018-02-22T20:31:06.337Z,42.64
2018-02-22T20:33:34.307Z,43.44
2018-02-22T20:36:02.483Z,42.36
2018-02-22T20:38:31.727Z,42.67
2018-02-22T20:40:59.648Z,43.09
2018-02-22T20:43:27.487Z,42.90
2018-02-22T20:45:55.485Z,42.62
2018-02-22T20:48:23.452Z,42.90
2018-02-22T20:50:51.420Z,42.78
2018-02-22T20:53:24.830Z,43.14
2018-02-22T20:55:53.044Z,43.11
2018-02-22T20:58:21.173Z,43.14
2018-02-22T21:00:49.332Z,42.76
2018-02-22T21:03:17.513Z,42.47
2018-02-22T21:05:45.461Z,42.44
2018-02-22T21:08:14.165Z,42.07
2018-02-22T21:10:42.032Z,42.84
2018-02-22T21:13:10.001Z,43.28
2018-02-22T21:15:37.970Z,42.89
2018-02-22T21:18:05.837Z,42.69
2018-02-22T21:20:33.935Z,43.16
2018-02-22T21:23:02.185Z,43.64
2018-02-22T21:25:30.115Z,43.21
2018-02-22T21:27:57.959Z,43.37
2018-02-22T21:30:25.888Z,43.46
2018-02-22T21:32:53.752Z,43.31
2018-02-22T21:35:21.621Z,43.23
2018-02-22T21:37:49.486Z,43.28
2018-02-22T21:40:17.661Z,43.70
2018-02-22T21:42:45.741Z,44.83
2018-02-22T21:45:13.703Z,44.96
2018-02-22T21:47:41.543Z,44.43
2018-02-22T21:50:09.434Z,44.65
2018-02-22T21:52:37.607Z,44.63
2018-02-22T21:55:05.372Z,44.89
2018-02-22T21:57:33.442Z,44.31
2018-02-22T22:00:01.207Z,43.75
2018-02-22T22:02:28.970Z,44.63
2018-02-22T22:04:56.939Z,44.05
2018-02-22T22:07:25.625Z,44.86
2018-02-22T22:09:54.007Z,44.34
2018-02-22T22:12:21.855Z,44.11
2018-02-22T22:14:49.512Z,44.49
2018-02-22T22:17:17.311Z,44.52
2018-02-22T22:19:45.162Z,44.78
2018-02-22T22:22:13.028Z,45.00
2018-02-22T22:24:40.895Z,44.90
2018-02-22T22:27:08.841Z,45.41
2018-02-22T22:29:37.140Z,45.25
2018-02-22T22:32:04.938Z,44.88
2018-02-22T22:34:33.180Z,45.37
2018-02-22T22:37:01.049Z,44.93
2018-02-22T22:39:29.630Z,44.46
2018-02-22T22:41:57.508Z,44.40
2018-02-22T22:44:26.285Z,44.70
2018-02-22T22:46:53.910Z,44.77
2018-02-22T22:49:21.849Z,45.55
2018-02-22T22:51:49.452Z,45.41
2018-02-22T22:54:17.182Z,44.73
2018-02-22T22:56:44.893Z,44.85
2018-02-22T22:59:12.511Z,45.42
2018-02-22T23:01:40.035Z,44.97
2018-02-22T23:04:07.559Z,45.39
2018-02-22T23:06:35.328Z,45.08
2018-02-22T23:09:02.853Z,45.93
2018-02-22T23:11:30.763Z,45.65
2018-02-22T23:13:58.806Z,45.95
2018-02-22T23:16:26.462Z,45.72
2018-02-22T23:18:54.368Z,45.75
2018-02-22T23:21:21.919Z,46.01
2018-02-22T23:23:49.699Z,46.05
2018-02-22T23:26:17.220Z,45.32
2018-02-22T23:28:44.809Z,45.65
2018-02-22T23:31:12.370Z,45.84
2018-02-22T23:33:39.885Z,45.96
2018-02-22T23:36:07.440Z,46.18
2018-02-22T23:38:35.010Z,45.85
2018-02-22T23:44:13.550Z,45.97
2018-02-22T23:46:41.267Z,45.67
2018-02-22T23:49:08.804Z,45.13
2018-02-22T23:51:36.365Z,45.53
2018-02-22T23:54:04.243Z,45.23
2018-02-22T23:56:31.777Z,45.28
2018-02-22T23:58:59.457Z,45.55
